Aérodrome :
LOGIN :

S'inscrire | Disclaimer

   EN    FR    IT 

 










Légende :    VFR   VFR Marginal   IFR   IFR Intensif   IFR Très Intensif
Visi : 
Plafond : 
>= 8 km
>= 3000ft
5 à 8 km
1000 à 3000 ft
1500m à 5 km
500 à 1000 ft
800 à 1500m
200 à 500 ft
< 800m
< 200 ft
Symboles :   Orages  Brouillard  Fortes neiges  Fortes précipitations  Vent > 20 kt
SIGMETs :   Divers  Orages  Givrage  Turbulence  Onde Orograph.  Cendres Volcan.






- Altitude de l'aérodrome : 37 ft
- Code IATA : HLY


EGOV - RAF Valley

DERNIER METAR :
  • 140750Z 03019KT 9999 FEW023 OVC210 07/02 Q1000 TEMPO SCT023 RMK BLU TEMPO WHT

METARs EXPIRÉS :
  • 140720Z 03020KT 9999 FEW023 SCT040 BKN210 07/03 Q0999 NOSIG RMK BLU BLU
  • 140650Z AUTO 03018KT 9999 BKN041/// 07/03 Q0999
  • 140550Z AUTO 03017KT 9999 SCT026/// BKN210/// 07/03 Q0997

TAF TAF EGOV
Valide du 14 à 09h jusqu'au 14 à 18h UTC


140726Z 1409/1418 03020G30KT 9999 FEW023
PROB30
TEMPO 1409/1418 SCT023



MET'MAP, la Météo Aéronautique d'un coup d'oeil ! - Copyright ORBIFLY Décembre 2007 - Disclaimer

ORBIFLY MET'MAP TEAM :

Programmation & Développement : Alexandra Zaïnal
Conception & Développement : Baudouin d'Aumeries
Co-Programmation & Développement : Marc-Olivier Méhu
Soutien technique & logistique : Manuel Goepfert

Contact : metmap@orbifly.com




SOURCES & CREDITS :

   NOAA